Snoqualmie River: South Fork station

back to: Snoqualmie river
South Fork station Summary - (NOAA Hydrograph: GARW1)
Latest reading:
Wed01/27 01:15 pm 0.0 ft 15 cfs (steady)
Past 24hr max:
Tue01/26 01:30 pm 11.08 ft 155 cfs
Forecasted crests: (published Wed 01/27/21 07:37 am)
Mon02/01 10:00 pm 11.14 ft 169 cfs

South Fork station Details

Latest Readings

Last 100 Readings:
Wed01/27 01:15 pm 0.0 ft 15 cfs
Wed01/27 01:00 pm 0.0 ft 15 cfs
Wed01/27 12:45 pm 11.04 ft 146 cfs
Wed01/27 12:30 pm 11.03 ft 143 cfs
Wed01/27 12:15 pm 0.0 ft 15 cfs
Wed01/27 12:00 pm 0.0 ft 15 cfs
Wed01/27 11:45 am 11.05 ft 148 cfs
Wed01/27 11:30 am 11.03 ft 143 cfs
Wed01/27 11:15 am 0.0 ft 15 cfs
Wed01/27 11:00 am 0.0 ft 15 cfs
Wed01/27 10:45 am 11.05 ft 148 cfs
Wed01/27 10:30 am 11.03 ft 143 cfs
Wed01/27 10:15 am 11.05 ft 148 cfs
Wed01/27 10:00 am 11.05 ft 148 cfs
Wed01/27 09:45 am 11.03 ft 143 cfs
Wed01/27 09:30 am 11.04 ft 146 cfs
Wed01/27 09:15 am 11.03 ft 143 cfs
Wed01/27 09:00 am 11.03 ft 143 cfs
Wed01/27 08:45 am 11.05 ft 148 cfs
Wed01/27 08:30 am 11.05 ft 148 cfs
Wed01/27 08:15 am 11.06 ft 150 cfs
Wed01/27 08:00 am 11.03 ft 143 cfs
Wed01/27 07:45 am 11.03 ft 143 cfs
Wed01/27 07:30 am 11.05 ft 148 cfs
Wed01/27 07:15 am 11.03 ft 143 cfs
Wed01/27 07:00 am 11.04 ft 146 cfs
Wed01/27 06:45 am 11.04 ft 146 cfs
Wed01/27 06:30 am 11.03 ft 143 cfs
Wed01/27 06:15 am 11.05 ft 148 cfs
Wed01/27 06:00 am 11.05 ft 148 cfs
Wed01/27 05:45 am 11.04 ft 146 cfs
Wed01/27 05:30 am 11.05 ft 148 cfs
Wed01/27 05:15 am 11.04 ft 146 cfs
Wed01/27 05:00 am 11.06 ft 150 cfs
Wed01/27 04:45 am 11.04 ft 146 cfs
Wed01/27 04:30 am 11.04 ft 146 cfs
Wed01/27 04:15 am 11.04 ft 146 cfs
Wed01/27 04:00 am 11.06 ft 150 cfs
Wed01/27 03:45 am 11.06 ft 150 cfs
Wed01/27 03:30 am 11.05 ft 148 cfs
Wed01/27 03:15 am 11.04 ft 146 cfs
Wed01/27 03:00 am 11.04 ft 146 cfs
Wed01/27 02:45 am 11.05 ft 148 cfs
Wed01/27 02:30 am 11.04 ft 146 cfs
Wed01/27 02:15 am 11.06 ft 150 cfs
Wed01/27 02:00 am 11.04 ft 146 cfs
Wed01/27 01:45 am 11.04 ft 146 cfs
Wed01/27 01:30 am 11.06 ft 150 cfs
Wed01/27 01:15 am 11.05 ft 148 cfs
Wed01/27 01:00 am 11.06 ft 150 cfs
Wed01/27 12:45 am 11.04 ft 146 cfs
Wed01/27 12:30 am 11.04 ft 146 cfs
Wed01/27 12:15 am 11.06 ft 150 cfs
Wed01/27 12:00 am 11.07 ft 153 cfs
Tue01/26 11:45 pm 11.05 ft 148 cfs
Tue01/26 11:30 pm 11.06 ft 150 cfs
Tue01/26 11:15 pm 11.05 ft 148 cfs
Tue01/26 11:00 pm 11.07 ft 153 cfs
Tue01/26 10:45 pm 11.05 ft 148 cfs
Tue01/26 10:30 pm 11.04 ft 146 cfs
Tue01/26 10:15 pm 11.05 ft 148 cfs
Tue01/26 10:00 pm 11.06 ft 150 cfs
Tue01/26 09:45 pm 11.07 ft 153 cfs
Tue01/26 09:30 pm 11.05 ft 148 cfs
Tue01/26 09:15 pm 11.05 ft 148 cfs
Tue01/26 09:00 pm 11.05 ft 148 cfs
Tue01/26 08:45 pm 11.05 ft 148 cfs
Tue01/26 08:30 pm 11.06 ft 150 cfs
Tue01/26 08:15 pm 11.07 ft 153 cfs
Tue01/26 08:00 pm 11.05 ft 148 cfs
Tue01/26 07:45 pm 11.06 ft 150 cfs
Tue01/26 07:30 pm 11.06 ft 150 cfs
Tue01/26 07:15 pm 11.06 ft 150 cfs
Tue01/26 07:00 pm 11.07 ft 153 cfs
Tue01/26 06:45 pm 11.07 ft 153 cfs
Tue01/26 06:30 pm 11.05 ft 148 cfs
Tue01/26 06:15 pm 11.05 ft 148 cfs
Tue01/26 06:00 pm 11.05 ft 148 cfs
Tue01/26 05:45 pm 11.07 ft 153 cfs
Tue01/26 05:30 pm 11.07 ft 153 cfs
Tue01/26 05:15 pm 11.08 ft 155 cfs
Tue01/26 05:00 pm 11.07 ft 153 cfs
Tue01/26 04:45 pm 11.07 ft 153 cfs
Tue01/26 04:30 pm 11.08 ft 155 cfs
Tue01/26 04:15 pm 11.06 ft 150 cfs
Tue01/26 04:00 pm 11.06 ft 150 cfs
Tue01/26 03:45 pm 11.05 ft 148 cfs
Tue01/26 03:30 pm 11.06 ft 150 cfs
Tue01/26 03:15 pm 11.06 ft 150 cfs
Tue01/26 03:00 pm 11.06 ft 150 cfs
Tue01/26 02:45 pm 11.07 ft 153 cfs
Tue01/26 02:30 pm 11.06 ft 150 cfs
Tue01/26 02:15 pm 11.06 ft 150 cfs
Tue01/26 02:00 pm 11.08 ft 155 cfs
Tue01/26 01:45 pm 11.08 ft 155 cfs
Tue01/26 01:30 pm 11.08 ft 155 cfs
Tue01/26 01:15 pm 11.06 ft 150 cfs
Tue01/26 01:00 pm 11.06 ft 150 cfs
Tue01/26 12:45 pm 11.08 ft 155 cfs
Tue01/26 12:30 pm 11.06 ft 150 cfs

Latest Forecasts

Currently Forecasted Readings:
Wed01/27 10:00 am 11.03 ft 143 cfs
Wed01/27 04:00 pm 11.02 ft 140 cfs
Wed01/27 10:00 pm 11.0 ft 137 cfs
Thu01/28 04:00 am 10.99 ft 134 cfs
Thu01/28 10:00 am 10.98 ft 131 cfs
Thu01/28 04:00 pm 10.97 ft 129 cfs
Thu01/28 10:00 pm 10.95 ft 126 cfs
Fri01/29 04:00 am 10.94 ft 124 cfs
Fri01/29 10:00 am 10.93 ft 121 cfs
Fri01/29 04:00 pm 10.92 ft 119 cfs
Fri01/29 10:00 pm 10.91 ft 116 cfs
Sat01/30 04:00 am 10.9 ft 114 cfs
Sat01/30 10:00 am 10.88 ft 112 cfs
Sat01/30 04:00 pm 10.88 ft 111 cfs
Sat01/30 10:00 pm 10.88 ft 110 cfs
Sun01/31 04:00 am 10.88 ft 110 cfs
Sun01/31 10:00 am 10.88 ft 111 cfs
Sun01/31 04:00 pm 10.9 ft 115 cfs
Sun01/31 10:00 pm 10.94 ft 124 cfs
Mon02/01 04:00 am 10.97 ft 131 cfs
Mon02/01 10:00 am 11.0 ft 137 cfs
Mon02/01 04:00 pm 11.09 ft 157 cfs
Mon02/01 10:00 pm 11.14 ft 169 cfs
Tue02/02 04:00 am 11.09 ft 157 cfs
Tue02/02 10:00 am 11.06 ft 151 cfs
Tue02/02 04:00 pm 11.04 ft 146 cfs
Tue02/02 10:00 pm 11.03 ft 143 cfs
Wed02/03 04:00 am 11.01 ft 139 cfs
Wed02/03 10:00 am 11.0 ft 135 cfs
Wed02/03 04:00 pm 10.98 ft 132 cfs
Wed02/03 10:00 pm 10.96 ft 128 cfs
Thu02/04 04:00 am 10.95 ft 125 cfs
Thu02/04 10:00 am 10.94 ft 123 cfs
Thu02/04 04:00 pm 10.93 ft 120 cfs
Thu02/04 10:00 pm 10.92 ft 118 cfs
Fri02/05 04:00 am 10.91 ft 116 cfs
Fri02/05 10:00 am 10.9 ft 114 cfs
Fri02/05 04:00 pm 10.89 ft 112 cfs
Fri02/05 10:00 pm 10.88 ft 110 cfs
Sat02/06 04:00 am 10.87 ft 109 cfs

Snoqualmie River flood gauge data supplied by the
National Weather Service Northwest River Forecast Center.

Sign up for Floodzilla alerts.